Pays
Station

 

Conditions  météo  pour  Kairouan  -  Tunisie    Tunisie

  
19 °C
    
 
 

METAR pour Kairouan :

DTTK 260100Z 36004KT 300V050 9999 BKN023 19/16 Q1013

 

Voici le bulletin pour Kairouan - Tunisie.
 
Le bulletin a été fait il y a 48 minutes, à 01:00 UTC .
Le vent soufflait à la vitesse de 2.1 mètres par seconde de Nord (360°), variant entre Ouest/Nord-ouest (300°) et Nord-est (050°).
 
La température était de 19 °C, avec un point de rosée à 16 °C.
La pression atmosphérique était de 1013 hPa.
L'humidité relative était de 82.7%.
 
Il y avait 5 à 7/8ème de nébulosité à une hauteur de 701 mètres.
 
La visibilité globale était de supérieure à 10 kilomètres.
 

 
 
 

Pays :   A   B   C   D   E   F   G   H   I   J   K   L   M   N   O   P   Q   R   S   T   U   V   W   Y   Z

 

Partenaires :  Info Météo avec Met'info
Météo Marine avec MeteoMarine.net
Infos Site  |  Infos Légales  |  Crédits  |  Confidentialité
Contactez-nous  |  Ajouter aux favoris
© 2013-2018 METAR - Tous droits réservés